Macclesfield, United Kingdom
Current Conditions -  °F | °C
As of 6:50 PM on Thursday 23 Oct 2014 (Local Time) from EGCC Reporting Station
Broken Clouds Broken Clouds  
Wind Chill: 57°   Ceiling: 2300
Heat Index: 57°   Visibility: 6mi
Dew Point: 55°   Wind: 8mph
Humidity: 94%   Direction: 190°S
Pressure: 29.88"   Gusts: NA
Location:  53.26°N, 2.13°W
Report Text: EGCC 231750Z 19007KT 9999 SCT016 BKN023 14/13 Q1012 NOSIG
Loading
Personal Weather Stations






























Interactive Weather Map New forecast layout! Learn more

10-Day Weather Forecast

Advertisements
Track Severe Weather on mobile